Bark River, Michigan
Current Conditions -  °F | °C
As of 4:35 AM on Friday 24 Oct 2014 (Local Time) from KESC Reporting Station
Overcast Overcast  
Wind Chill: 46°   Ceiling: 1000
Heat Index: 46°   Visibility: 3mi
Dew Point: 45°   Wind: 3mph
Humidity: 93%   Direction: 230°SW
Pressure: 29.99"   Gusts: NA
Location:  45.71°N, 87.3°W
Report Text: KESC 240835Z AUTO 23003KT 3SM OVC010 08/07 A2999 RMK AO1
Loading
Personal Weather Stations






























Interactive Weather Map
Tropical Storm Tracking
New forecast layout! Learn more

10-Day Weather Forecast

Advertisements
Track Severe Weather on mobile